Time;durP1;ratioP1;P1;durP2;ratioP2;P2;SDS_P1;SDS_P2;PMS_P1;PMS_P2;Temp;Humidity;BMP_temperature;BMP_pressure;BME280_temperature;BME280_humidity;BME280_pressure;Samples;Min_cycle;Max_cycle;Signal;HPM_P1;HPM_P2
2024/01/02 00:02:12;;;;;;;17.90;5.72;;;5.60;99.90;;;;;;5072125;28;20039;-65
2024/01/02 00:04:37;;;;;;;17.35;4.72;;;5.60;99.90;;;;;;5071702;28;20447;-67
2024/01/02 00:07:03;;;;;;;22.38;5.22;;;5.60;99.90;;;;;;5088083;28;20071;-66
2024/01/02 00:09:29;;;;;;;19.60;5.10;;;5.60;99.90;;;;;;5071588;28;20684;-66
2024/01/02 00:11:55;;;;;;;16.45;4.20;;;5.70;99.90;;;;;;5072328;28;20393;-66
2024/01/02 00:14:20;;;;;;;15.50;3.90;;;5.70;99.90;;;;;;5089502;28;20095;-65
2024/01/02 00:16:46;;;;;;;15.70;4.20;;;5.70;99.90;;;;;;5072191;28;20067;-66
2024/01/02 00:19:12;;;;;;;16.08;3.72;;;5.60;99.90;;;;;;5088702;28;20131;-65
2024/01/02 00:21:38;;;;;;;15.27;4.20;;;5.70;99.90;;;;;;5072872;28;20391;-66
2024/01/02 00:24:05;;;;;;;16.00;4.00;;;5.80;99.90;;;;;;5072113;28;20074;-65
2024/01/02 00:26:31;;;;;;;14.48;3.70;;;5.80;99.90;;;;;;5088847;28;20039;-65
2024/01/02 00:28:57;;;;;;;17.75;3.63;;;5.90;99.90;;;;;;5088817;28;20346;-64
2024/01/02 00:31:23;;;;;;;15.75;3.85;;;5.90;99.90;;;;;;5089192;28;20042;-68
2024/01/02 00:33:49;;;;;;;13.30;3.22;;;6.00;99.90;;;;;;5071911;28;20039;-65
2024/01/02 00:36:15;;;;;;;17.20;2.50;;;5.90;99.90;;;;;;5054589;28;20048;-66
2024/01/02 00:38:41;;;;;;;12.80;2.75;;;6.10;99.90;;;;;;5071796;28;20096;-66
2024/01/02 00:41:07;;;;;;;16.63;2.88;;;6.10;99.90;;;;;;5054510;28;20079;-66
2024/01/02 00:43:33;;;;;;;13.20;1.73;;;6.00;99.90;;;;;;5054748;28;20116;-66
2024/01/02 00:46:00;;;;;;;13.48;2.60;;;6.10;99.90;;;;;;5092377;28;20122;-67
2024/01/02 00:48:28;;;;;;;16.08;2.95;;;6.10;99.90;;;;;;5093148;28;20052;-66
2024/01/02 00:50:54;;;;;;;12.52;2.70;;;6.20;99.90;;;;;;5064251;28;20503;-66
2024/01/02 00:53:20;;;;;;;26.05;3.45;;;6.10;99.90;;;;;;5075323;28;20035;-65
2024/01/02 00:55:46;;;;;;;18.80;2.83;;;6.20;99.90;;;;;;5092733;28;20040;-66
2024/01/02 00:58:12;;;;;;;15.70;2.50;;;6.20;99.90;;;;;;5092970;28;20047;-65
2024/01/02 01:00:37;;;;;;;10.13;2.00;;;6.20;99.90;;;;;;5075701;28;20047;-65
2024/01/02 01:03:04;;;;;;;14.52;2.60;;;6.20;99.90;;;;;;5092235;28;20046;-65
2024/01/02 01:05:30;;;;;;;12.82;2.53;;;6.10;99.90;;;;;;5075002;28;20851;-65
2024/01/02 01:07:56;;;;;;;14.00;2.67;;;6.20;99.90;;;;;;5075600;28;20082;-65
2024/01/02 01:10:22;;;;;;;15.75;2.40;;;6.10;99.90;;;;;;5075209;28;20534;-65
2024/01/02 01:12:47;;;;;;;9.20;1.52;;;6.10;99.90;;;;;;5057820;28;20036;-65
2024/01/02 01:15:13;;;;;;;18.42;2.63;;;6.10;99.90;;;;;;5075393;28;20172;-65
2024/01/02 01:17:39;;;;;;;11.40;2.55;;;6.10;99.90;;;;;;5056409;28;20043;-65
2024/01/02 01:20:06;;;;;;;11.43;2.25;;;6.20;99.90;;;;;;5074748;28;20051;-65
2024/01/02 01:22:32;;;;;;;13.57;2.15;;;6.10;99.90;;;;;;5091595;28;20046;-67
2024/01/02 01:24:58;;;;;;;9.60;1.83;;;6.10;99.90;;;;;;5074879;28;20092;-65
2024/01/02 01:27:23;;;;;;;10.73;1.85;;;6.10;99.90;;;;;;5077908;28;20415;-66
2024/01/02 01:29:49;;;;;;;12.40;2.00;;;6.20;99.90;;;;;;5074954;28;20078;-65
2024/01/02 01:32:15;;;;;;;10.45;1.95;;;6.20;99.90;;;;;;5074831;28;20032;-66
2024/01/02 01:34:41;;;;;;;13.93;2.08;;;6.10;99.90;;;;;;5075227;28;20275;-65
2024/01/02 01:37:07;;;;;;;10.80;1.58;;;6.20;99.90;;;;;;5074424;28;20130;-67
2024/01/02 01:39:32;;;;;;;13.48;2.00;;;6.10;99.90;;;;;;5074415;28;20050;-66
2024/01/02 01:41:58;;;;;;;10.80;1.63;;;6.10;99.90;;;;;;5091809;28;20047;-65
2024/01/02 01:44:24;;;;;;;7.43;1.40;;;6.20;99.90;;;;;;5058760;28;20036;-66
2024/01/02 01:46:50;;;;;;;8.80;1.50;;;6.20;99.90;;;;;;5074962;28;20296;-66
2024/01/02 01:49:16;;;;;;;11.70;1.35;;;6.10;99.90;;;;;;5075460;28;20568;-66
2024/01/02 01:51:43;;;;;;;11.48;1.30;;;6.20;99.90;;;;;;5074545;28;20035;-66
2024/01/02 01:54:13;;;;;;;9.10;1.33;;;6.20;99.90;;;;;;5075182;28;20032;-66
2024/01/02 01:56:41;;;;;;;9.43;1.30;;;6.20;99.90;;;;;;5074520;28;20647;-66
2024/01/02 01:59:09;;;;;;;10.35;1.60;;;6.10;99.90;;;;;;5075003;28;20394;-67
2024/01/02 02:01:35;;;;;;;11.88;1.20;;;6.10;99.90;;;;;;5091980;28;20042;-66
2024/01/02 02:04:02;;;;;;;8.70;1.63;;;6.10;99.90;;;;;;5080933;28;20122;-66
2024/01/02 02:06:27;;;;;;;10.15;2.10;;;6.10;99.90;;;;;;5073925;28;20565;-66
2024/01/02 02:08:53;;;;;;;11.50;1.40;;;6.10;99.90;;;;;;5057840;28;20039;-67
2024/01/02 02:11:20;;;;;;;9.45;1.02;;;6.00;99.90;;;;;;5091446;28;20090;-66
2024/01/02 02:13:47;;;;;;;10.60;1.52;;;6.20;99.90;;;;;;5091989;28;20182;-66
2024/01/02 02:16:14;;;;;;;11.52;1.58;;;6.20;99.90;;;;;;5074251;28;20085;-67
2024/01/02 02:18:40;;;;;;;12.05;1.30;;;6.10;99.90;;;;;;5091589;28;20066;-66
2024/01/02 02:21:06;;;;;;;10.57;1.55;;;6.10;99.90;;;;;;5073410;28;20040;-68
2024/01/02 02:23:31;;;;;;;10.90;1.63;;;6.20;99.90;;;;;;5074435;28;20267;-66
2024/01/02 02:25:57;;;;;;;14.27;1.75;;;6.20;99.90;;;;;;5078682;28;20051;-67
2024/01/02 02:28:23;;;;;;;14.45;2.20;;;6.10;99.90;;;;;;5075092;28;20323;-67
2024/01/02 02:30:49;;;;;;;12.65;2.10;;;6.10;99.90;;;;;;5074578;28;20727;-66
2024/01/02 02:33:14;;;;;;;17.23;1.92;;;6.20;99.90;;;;;;5073809;28;20054;-68
2024/01/02 02:35:40;;;;;;;16.20;2.38;;;6.10;99.90;;;;;;5074457;28;20509;-67
2024/01/02 02:38:07;;;;;;;18.20;3.13;;;6.20;99.90;;;;;;5073575;28;20039;-67
2024/01/02 02:40:32;;;;;;;12.68;2.30;;;6.20;99.90;;;;;;5074380;28;20035;-66
2024/01/02 02:42:58;;;;;;;16.52;2.90;;;6.30;99.90;;;;;;5083703;28;20511;-67
2024/01/02 02:45:24;;;;;;;14.68;2.75;;;6.20;99.90;;;;;;5091154;28;20031;-66
2024/01/02 02:47:50;;;;;;;14.65;3.35;;;6.30;99.90;;;;;;5056801;28;20055;-66
2024/01/02 02:50:17;;;;;;;16.88;3.58;;;6.30;99.90;;;;;;5090887;28;20271;-67
2024/01/02 02:52:42;;;;;;;19.33;4.07;;;6.30;99.90;;;;;;5090814;28;20072;-67
2024/01/02 02:55:08;;;;;;;18.17;3.15;;;6.20;99.90;;;;;;5073803;28;20118;-67
2024/01/02 02:57:34;;;;;;;15.57;4.03;;;6.30;99.90;;;;;;5074412;28;20031;-67
2024/01/02 03:00:00;;;;;;;20.92;4.40;;;6.30;99.90;;;;;;5091643;28;20452;-67
2024/01/02 03:02:26;;;;;;;16.17;3.53;;;6.30;99.90;;;;;;5091005;28;20518;-67
2024/01/02 03:04:52;;;;;;;21.08;4.07;;;6.40;99.90;;;;;;5091053;28;20047;-67
2024/01/02 03:07:20;;;;;;;17.80;4.60;;;6.50;99.90;;;;;;5072481;28;20075;-66
2024/01/02 03:09:45;;;;;;;15.48;4.95;;;6.40;99.90;;;;;;5090351;28;20158;-67
2024/01/02 03:12:12;;;;;;;19.63;4.68;;;6.40;99.90;;;;;;5074005;28;20050;-66
2024/01/02 03:14:39;;;;;;;15.35;4.45;;;6.40;99.90;;;;;;5091493;28;20054;-66
2024/01/02 03:17:05;;;;;;;18.30;5.32;;;6.40;99.90;;;;;;5090211;28;20044;-65
2024/01/02 03:19:31;;;;;;;22.73;5.65;;;6.40;99.90;;;;;;5090555;28;20050;-66
2024/01/02 03:21:57;;;;;;;21.17;5.28;;;6.30;99.90;;;;;;5073811;28;20238;-66
2024/01/02 03:24:23;;;;;;;13.98;4.97;;;6.50;99.90;;;;;;5073068;28;20512;-66
2024/01/02 03:26:48;;;;;;;23.15;5.95;;;6.50;99.90;;;;;;5090640;28;20047;-66
2024/01/02 03:29:16;;;;;;;18.42;5.43;;;6.40;99.90;;;;;;5073162;28;21776;-66
2024/01/02 03:31:43;;;;;;;19.17;5.88;;;6.50;99.90;;;;;;5090187;28;20039;-66
2024/01/02 03:34:09;;;;;;;15.57;5.55;;;6.50;99.90;;;;;;5072602;28;20055;-66
2024/01/02 03:36:34;;;;;;;14.88;5.20;;;6.40;99.90;;;;;;5081058;28;20095;-66
2024/01/02 03:39:00;;;;;;;16.58;4.68;;;6.40;99.90;;;;;;5072941;28;20432;-66
2024/01/02 03:41:26;;;;;;;18.13;5.20;;;6.60;99.90;;;;;;5090201;28;20035;-68
2024/01/02 03:43:52;;;;;;;19.38;6.10;;;6.70;99.90;;;;;;5090122;28;20050;-66
2024/01/02 03:46:17;;;;;;;14.50;3.95;;;6.60;99.90;;;;;;5055569;28;20527;-66
2024/01/02 03:48:44;;;;;;;16.42;5.20;;;6.60;99.90;;;;;;5054929;28;20425;-67
2024/01/02 03:51:11;;;;;;;17.75;5.65;;;6.70;99.90;;;;;;5088649;28;20104;-66
2024/01/02 03:53:37;;;;;;;21.27;5.43;;;6.50;99.90;;;;;;5073258;28;20118;-67
2024/01/02 03:56:04;;;;;;;13.10;4.72;;;6.50;99.90;;;;;;5054931;28;20124;-68
2024/01/02 03:58:30;;;;;;;14.13;4.72;;;6.70;99.90;;;;;;5072855;28;20492;-68
2024/01/02 04:00:56;;;;;;;14.05;4.43;;;6.70;99.90;;;;;;5072711;28;20036;-68
2024/01/02 04:03:23;;;;;;;9.32;3.70;;;6.50;99.90;;;;;;5072184;28;20039;-67
2024/01/02 04:05:49;;;;;;;18.15;5.35;;;6.60;99.90;;;;;;5072661;28;20138;-67
2024/01/02 04:08:15;;;;;;;16.73;5.63;;;6.50;99.90;;;;;;5041431;28;20040;-67
2024/01/02 04:10:42;;;;;;;17.33;5.03;;;6.70;99.90;;;;;;5089493;28;20036;-68
2024/01/02 04:13:12;;;;;;;15.27;4.78;;;6.50;99.90;;;;;;5090155;28;20036;-67
2024/01/02 04:15:38;;;;;;;16.63;4.78;;;6.60;99.90;;;;;;5072701;28;20151;-67
2024/01/02 04:18:04;;;;;;;13.57;4.43;;;6.70;99.90;;;;;;5073462;28;20099;-68
2024/01/02 04:20:30;;;;;;;12.75;3.15;;;6.70;99.90;;;;;;5093587;28;20239;-67
2024/01/02 04:22:56;;;;;;;11.85;4.20;;;6.70;99.90;;;;;;5076414;28;21123;-68
2024/01/02 04:25:22;;;;;;;9.88;3.17;;;6.50;99.90;;;;;;5076780;28;20120;-67
2024/01/02 04:27:52;;;;;;;13.25;4.53;;;6.80;99.90;;;;;;5094199;28;20047;-68
2024/01/02 04:30:18;;;;;;;10.55;3.08;;;6.60;99.90;;;;;;5076822;28;20158;-68
2024/01/02 04:32:44;;;;;;;13.45;4.28;;;6.80;99.90;;;;;;5058801;28;20054;-67
2024/01/02 04:35:09;;;;;;;9.07;3.58;;;6.70;99.90;;;;;;5079363;28;20043;-68
2024/01/02 04:37:35;;;;;;;14.85;3.80;;;6.80;99.90;;;;;;5076200;28;20119;-68
2024/01/02 04:40:01;;;;;;;13.40;4.10;;;6.60;99.90;;;;;;5059397;28;20074;-68
2024/01/02 04:42:26;;;;;;;10.63;4.20;;;6.60;99.90;;;;;;5057223;28;20138;-68
2024/01/02 04:44:52;;;;;;;17.75;4.90;;;6.70;99.90;;;;;;5075503;28;20059;-68
2024/01/02 04:47:18;;;;;;;14.85;3.95;;;6.70;99.90;;;;;;5058332;28;20138;-68
2024/01/02 04:49:44;;;;;;;9.75;3.08;;;6.60;99.90;;;;;;5058784;28;20047;-68
2024/01/02 04:52:10;;;;;;;11.90;4.10;;;6.60;99.90;;;;;;5059204;28;20138;-68
2024/01/02 04:54:36;;;;;;;13.30;4.13;;;6.60;99.90;;;;;;5059640;28;20040;-68
2024/01/02 04:57:02;;;;;;;13.48;3.60;;;6.90;99.90;;;;;;5058881;28;20200;-68
2024/01/02 04:59:27;;;;;;;13.25;3.33;;;6.90;99.90;;;;;;5058749;28;20485;-68
2024/01/02 05:01:53;;;;;;;8.75;2.88;;;6.90;99.90;;;;;;5092955;28;20563;-68
2024/01/02 05:04:19;;;;;;;15.73;3.53;;;6.60;99.90;;;;;;5076045;28;20036;-69
2024/01/02 05:06:44;;;;;;;15.07;3.65;;;6.60;99.90;;;;;;5058074;28;20202;-69
2024/01/02 05:09:10;;;;;;;10.05;3.20;;;6.90;99.90;;;;;;5059340;28;20066;-68
2024/01/02 05:11:40;;;;;;;13.77;2.97;;;6.60;99.90;;;;;;5076522;28;20083;-69
2024/01/02 05:14:05;;;;;;;11.30;2.95;;;6.80;99.90;;;;;;5059284;28;20055;-69
2024/01/02 05:16:31;;;;;;;5.63;1.83;;;6.70;99.90;;;;;;5076065;28;20039;-69
2024/01/02 05:18:57;;;;;;;9.13;2.53;;;6.90;99.90;;;;;;5058867;28;20076;-69
2024/01/02 05:21:22;;;;;;;11.35;2.40;;;6.80;99.90;;;;;;5092431;28;20112;-69
2024/01/02 05:23:48;;;;;;;11.63;2.70;;;6.70;99.90;;;;;;5075348;28;20258;-69
2024/01/02 05:26:14;;;;;;;8.95;2.30;;;6.70;99.90;;;;;;5075784;28;20040;-68
2024/01/02 05:28:40;;;;;;;8.57;1.92;;;6.80;99.90;;;;;;5058485;28;20519;-69
2024/01/02 05:31:05;;;;;;;9.98;2.70;;;6.80;99.90;;;;;;5057952;28;20548;-69
2024/01/02 05:33:31;;;;;;;10.13;2.38;;;6.80;99.90;;;;;;5075220;28;20508;-69
2024/01/02 05:35:57;;;;;;;7.05;2.28;;;6.80;99.90;;;;;;5075656;28;20363;-69
2024/01/02 05:38:23;;;;;;;6.15;1.45;;;6.90;99.90;;;;;;5058317;28;20563;-69
2024/01/02 05:40:49;;;;;;;7.75;1.52;;;6.70;99.90;;;;;;5058599;28;20127;-69
2024/01/02 05:43:14;;;;;;;6.93;1.50;;;6.60;99.90;;;;;;5074655;28;20485;-68
2024/01/02 05:45:40;;;;;;;6.10;1.38;;;6.70;99.90;;;;;;5075143;28;20040;-68
2024/01/02 05:48:07;;;;;;;8.50;1.80;;;6.50;99.90;;;;;;5074901;28;20043;-69
2024/01/02 05:50:32;;;;;;;8.80;1.17;;;6.90;99.90;;;;;;5058249;28;20039;-70
2024/01/02 05:52:58;;;;;;;6.05;1.27;;;6.60;99.90;;;;;;5091743;28;20093;-70
2024/01/02 05:55:24;;;;;;;4.95;1.15;;;6.90;99.90;;;;;;5058830;28;20067;-69
2024/01/02 05:57:56;;;;;;;9.45;2.40;;;6.60;99.90;;;;;;5075844;28;20040;-69
2024/01/02 06:00:22;;;;;;;9.68;1.73;;;6.50;99.90;;;;;;5058460;28;20043;-69
2024/01/02 06:02:48;;;;;;;7.30;1.88;;;6.70;99.90;;;;;;5074628;28;20112;-69
2024/01/02 06:05:15;;;;;;;6.13;1.52;;;6.90;99.90;;;;;;5057843;28;20043;-69
2024/01/02 06:07:41;;;;;;;6.15;1.17;;;6.80;99.90;;;;;;5066184;28;20062;-69
2024/01/02 06:10:07;;;;;;;6.47;1.52;;;6.70;99.90;;;;;;5108885;27;20032;-69
2024/01/02 06:12:33;;;;;;;5.93;0.93;;;6.90;99.90;;;;;;5074563;28;20390;-68
2024/01/02 06:14:58;;;;;;;9.80;1.33;;;6.70;99.90;;;;;;5091142;28;20339;-68
2024/01/02 06:17:24;;;;;;;6.47;1.23;;;6.60;99.90;;;;;;5074081;28;20050;-69
2024/01/02 06:19:50;;;;;;;4.53;1.05;;;6.80;99.90;;;;;;5074189;28;20050;-69
2024/01/02 06:22:16;;;;;;;7.85;2.00;;;6.60;99.90;;;;;;5091038;28;20326;-68
2024/01/02 06:24:42;;;;;;;8.52;1.80;;;6.50;99.90;;;;;;5074862;28;20078;-69
2024/01/02 06:27:10;;;;;;;6.95;1.67;;;6.50;99.90;;;;;;5074470;28;20174;-69
2024/01/02 06:29:37;;;;;;;3.40;1.15;;;6.70;99.90;;;;;;5089562;28;20050;-69
2024/01/02 06:32:03;;;;;;;4.78;1.60;;;6.80;99.90;;;;;;5062681;28;20043;-68
2024/01/02 06:34:32;;;;;;;5.57;1.67;;;6.90;99.90;;;;;;5090177;28;20749;-69
2024/01/02 06:36:58;;;;;;;6.03;1.33;;;6.90;99.90;;;;;;5073376;28;20186;-70
2024/01/02 06:39:23;;;;;;;6.95;2.17;;;6.90;99.90;;;;;;5057263;28;20396;-69
2024/01/02 06:41:49;;;;;;;3.83;1.15;;;6.90;99.90;;;;;;5090651;28;20046;-68
2024/01/02 06:44:15;;;;;;;3.63;1.30;;;6.80;99.90;;;;;;5056623;28;20213;-70
2024/01/02 06:46:41;;;;;;;4.00;1.13;;;6.50;99.90;;;;;;5073416;28;20044;-69
2024/01/02 06:49:09;;;;;;;5.25;2.00;;;6.50;99.90;;;;;;5057468;28;20054;-68
2024/01/02 06:51:37;;;;;;;5.38;1.40;;;6.80;99.90;;;;;;5107745;27;20036;-68
2024/01/02 06:54:03;;;;;;;4.70;1.52;;;6.80;99.90;;;;;;5072933;28;20289;-69
2024/01/02 06:56:29;;;;;;;1.35;0.50;;;6.60;99.90;;;;;;5073636;28;20753;-69
2024/01/02 06:58:55;;;;;;;1.77;0.70;;;6.80;99.90;;;;;;5074042;28;20052;-69
2024/01/02 07:01:21;;;;;;;5.95;1.10;;;6.70;99.90;;;;;;5074027;28;20043;-69
2024/01/02 07:03:47;;;;;;;4.97;0.90;;;6.50;99.90;;;;;;5056550;28;20036;-69
2024/01/02 07:06:13;;;;;;;6.80;1.77;;;6.90;99.90;;;;;;5056617;28;20071;-69
2024/01/02 07:08:39;;;;;;;4.45;1.50;;;6.60;99.90;;;;;;5074355;28;20668;-70
2024/01/02 07:11:04;;;;;;;5.78;1.63;;;6.70;99.90;;;;;;5073995;28;20118;-69
2024/01/02 07:13:30;;;;;;;6.20;1.40;;;6.80;99.90;;;;;;5073780;28;20509;-71
2024/01/02 07:15:56;;;;;;;3.58;1.30;;;6.90;99.90;;;;;;5090782;28;20083;-69
2024/01/02 07:18:22;;;;;;;4.55;1.30;;;6.80;99.90;;;;;;5074556;28;20043;-70
2024/01/02 07:20:47;;;;;;;2.45;1.05;;;6.80;99.90;;;;;;5073763;28;20054;-70
2024/01/02 07:23:18;;;;;;;6.10;1.77;;;6.60;99.90;;;;;;5056673;28;20124;-71
2024/01/02 07:25:44;;;;;;;3.17;1.55;;;6.90;99.90;;;;;;5073341;28;20520;-69
2024/01/02 07:28:09;;;;;;;3.25;1.40;;;6.70;99.90;;;;;;5072394;28;20234;-70
2024/01/02 07:30:35;;;;;;;4.50;2.05;;;6.50;99.90;;;;;;5073533;28;20307;-70
2024/01/02 07:33:01;;;;;;;2.20;1.08;;;6.50;99.90;;;;;;5056029;28;20071;-71
2024/01/02 07:35:27;;;;;;;2.28;1.08;;;6.40;99.90;;;;;;5073200;28;20404;-70
2024/01/02 07:37:53;;;;;;;3.55;1.38;;;6.70;99.90;;;;;;5056246;28;20039;-70
2024/01/02 07:40:19;;;;;;;2.60;1.42;;;6.60;99.90;;;;;;5073462;28;20043;-70
2024/01/02 07:42:44;;;;;;;4.47;2.00;;;6.50;99.90;;;;;;5055397;28;20065;-70
2024/01/02 07:45:10;;;;;;;4.05;2.47;;;6.60;99.90;;;;;;5072921;28;20134;-70
2024/01/02 07:47:39;;;;;;;2.70;2.50;;;6.60;99.90;;;;;;5072867;28;20646;-70
2024/01/02 07:50:05;;;;;;;2.65;1.77;;;7.00;99.90;;;;;;5072965;28;20050;-71
2024/01/02 07:52:32;;;;;;;6.32;3.35;;;7.00;99.90;;;;;;5056808;28;20036;-70
2024/01/02 07:54:58;;;;;;;9.60;7.95;;;6.80;99.90;;;;;;5072760;28;20575;-71
2024/01/02 07:57:25;;;;;;;8.10;6.90;;;7.00;99.90;;;;;;5072078;28;20072;-71
2024/01/02 07:59:51;;;;;;;5.32;4.82;;;7.00;99.90;;;;;;5072406;28;20185;-71
2024/01/02 08:02:17;;;;;;;9.57;6.60;;;6.40;99.90;;;;;;5054154;28;20292;-70
2024/01/02 08:04:42;;;;;;;2.35;2.15;;;6.70;99.90;;;;;;5071853;28;20039;-71
2024/01/02 08:07:16;;;;;;;1.67;1.55;;;6.50;99.90;;;;;;5056572;28;20468;-71
2024/01/02 08:09:43;;;;;;;2.15;1.40;;;6.50;99.90;;;;;;5058463;28;20044;-71
2024/01/02 08:12:09;;;;;;;1.45;0.55;;;6.80;99.90;;;;;;5057890;28;20039;-73
2024/01/02 08:14:34;;;;;;;1.02;0.40;;;6.70;99.90;;;;;;5057056;28;20103;-71
2024/01/02 08:17:00;;;;;;;1.13;0.50;;;6.60;99.90;;;;;;5055788;28;20039;-71
2024/01/02 08:19:27;;;;;;;1.33;0.60;;;6.60;99.90;;;;;;5074421;28;20401;-71
2024/01/02 08:21:53;;;;;;;0.73;0.60;;;7.10;99.90;;;;;;5073874;28;20036;-71
2024/01/02 08:24:18;;;;;;;2.05;0.98;;;6.80;99.90;;;;;;5073696;28;20097;-70
2024/01/02 08:26:44;;;;;;;1.60;0.93;;;7.00;99.90;;;;;;5089887;28;20035;-71
2024/01/02 08:29:13;;;;;;;2.80;1.23;;;7.00;99.90;;;;;;5073746;28;20055;-71
2024/01/02 08:31:39;;;;;;;1.70;1.20;;;6.70;99.90;;;;;;5073408;28;20441;-71
2024/01/02 08:34:05;;;;;;;3.15;1.80;;;7.00;99.90;;;;;;5073846;28;20464;-70
2024/01/02 08:36:31;;;;;;;2.10;1.88;;;6.70;99.90;;;;;;5073733;28;20364;-71
2024/01/02 08:38:57;;;;;;;2.63;2.10;;;6.80;99.90;;;;;;5072850;28;20490;-70
2024/01/02 08:41:23;;;;;;;3.53;2.00;;;6.70;99.90;;;;;;5057247;28;20047;-70
2024/01/02 08:43:48;;;;;;;2.45;2.08;;;7.40;99.90;;;;;;5072985;28;20764;-70
2024/01/02 08:46:14;;;;;;;2.67;1.67;;;7.40;99.90;;;;;;5056059;28;20048;-70
2024/01/02 08:48:41;;;;;;;1.70;1.60;;;6.90;99.90;;;;;;5073986;28;20548;-70
2024/01/02 08:51:06;;;;;;;2.90;2.08;;;6.90;99.90;;;;;;5056887;28;20081;-70
2024/01/02 08:53:32;;;;;;;2.03;1.60;;;7.60;99.90;;;;;;5090207;28;20035;-71
2024/01/02 08:55:58;;;;;;;2.22;1.77;;;7.10;99.90;;;;;;5073280;28;20043;-69
2024/01/02 08:58:24;;;;;;;2.15;1.95;;;7.30;99.90;;;;;;5073621;28;20460;-71
2024/01/02 09:00:50;;;;;;;3.10;2.22;;;7.50;99.90;;;;;;5090012;28;20696;-69
2024/01/02 09:03:16;;;;;;;2.60;2.13;;;7.00;99.90;;;;;;5074140;28;20077;-71
2024/01/02 09:05:42;;;;;;;2.42;2.22;;;7.80;99.90;;;;;;5092889;28;20465;-70
2024/01/02 09:08:08;;;;;;;3.20;2.70;;;7.40;99.90;;;;;;5077107;28;20043;-70
2024/01/02 09:10:34;;;;;;;2.92;2.63;;;7.30;99.90;;;;;;5077185;28;20221;-71
2024/01/02 09:12:59;;;;;;;4.13;3.00;;;7.80;99.90;;;;;;5093519;28;20096;-70
2024/01/02 09:15:25;;;;;;;3.17;2.88;;;7.40;99.90;;;;;;5060589;28;20678;-70
2024/01/02 09:17:51;;;;;;;3.60;3.25;;;7.50;99.90;;;;;;5060836;28;20151;-70
2024/01/02 09:20:18;;;;;;;5.65;4.07;;;8.10;99.90;;;;;;5077380;28;20043;-70
2024/01/02 09:22:44;;;;;;;5.13;3.97;;;7.80;99.90;;;;;;5094117;28;20496;-71
2024/01/02 09:25:12;;;;;;;5.07;3.78;;;7.90;99.90;;;;;;5076640;28;20040;-72
2024/01/02 09:27:39;;;;;;;6.43;5.00;;;7.60;99.90;;;;;;5093444;28;20039;-71
2024/01/02 09:30:06;;;;;;;7.15;5.88;;;7.50;99.90;;;;;;5059955;28;20050;-71
2024/01/02 09:32:32;;;;;;;9.55;6.70;;;8.30;99.90;;;;;;5077095;28;20319;-71
2024/01/02 09:34:58;;;;;;;10.35;6.78;;;7.70;99.90;;;;;;5076308;28;20039;-71
2024/01/02 09:37:24;;;;;;;10.52;7.25;;;8.00;99.90;;;;;;5077188;28;20054;-71
2024/01/02 09:39:51;;;;;;;11.30;7.25;;;8.20;99.90;;;;;;5093052;28;20636;-71
2024/01/02 09:42:30;;;;;;;12.10;7.90;;;8.20;99.90;;;;;;5059659;28;20051;-72
2024/01/02 09:45:07;;;;;;;12.60;8.38;;;7.80;99.90;;;;;;5093770;28;20246;-71
2024/01/02 09:47:51;;;;;;;17.58;9.65;;;7.70;99.90;;;;;;5076234;28;20102;-71
2024/01/02 09:50:27;;;;;;;16.95;9.13;;;8.20;99.90;;;;;;5100835;27;20055;-71
2024/01/02 09:53:20;;;;;;;15.50;8.55;;;8.10;99.90;;;;;;5076897;28;20335;-72
2024/01/02 09:55:58;;;;;;;14.93;8.30;;;7.80;99.90;;;;;;5075181;28;20370;-73
2024/01/02 09:58:34;;;;;;;15.90;9.68;;;8.60;99.90;;;;;;5076800;28;20047;-72
2024/01/02 10:01:12;;;;;;;18.48;9.68;;;8.10;99.90;;;;;;5076205;28;20040;-73
2024/01/02 10:04:01;;;;;;;16.98;9.88;;;8.10;99.90;;;;;;5075564;28;20039;-73
2024/01/02 10:07:05;;;;;;;26.20;10.27;;;8.20;99.90;;;;;;5067787;28;20513;-74
2024/01/02 10:09:40;;;;;;;22.95;9.68;;;8.50;99.90;;;;;;5057846;28;20040;-73
2024/01/02 10:12:18;;;;;;;21.58;10.10;;;8.90;99.90;;;;;;5076060;28;20371;-74
2024/01/02 10:15:02;;;;;;;22.52;9.48;;;9.00;99.90;;;;;;5092628;28;20393;-73
2024/01/02 10:17:46;;;;;;;20.67;10.18;;;8.80;99.90;;;;;;5094751;27;20035;-72
2024/01/02 10:20:28;;;;;;;24.63;10.20;;;9.20;99.90;;;;;;5075674;28;20262;-72
2024/01/02 10:23:17;;;;;;;29.35;10.70;;;9.00;99.90;;;;;;5075904;28;20290;-71
2024/01/02 10:25:44;;;;;;;26.17;10.20;;;9.30;99.90;;;;;;5092215;28;20047;-72
2024/01/02 10:28:24;;;;;;;27.05;9.52;;;8.90;99.90;;;;;;5075772;28;20044;-73
2024/01/02 10:31:27;;;;;;;22.38;8.48;;;9.50;99.90;;;;;;5075025;28;20031;-72
2024/01/02 10:33:58;;;;;;;28.13;8.88;;;9.00;99.90;;;;;;5076034;28;20397;-72
2024/01/02 10:36:26;;;;;;;30.33;8.32;;;9.60;99.90;;;;;;5092210;28;20511;-72
2024/01/02 10:39:02;;;;;;;21.48;6.57;;;9.70;99.90;;;;;;5075842;28;20120;-72
2024/01/02 10:41:52;;;;;;;25.52;5.75;;;9.40;99.90;;;;;;5091767;28;20280;-72
2024/01/02 10:44:42;;;;;;;21.45;4.10;;;9.90;99.90;;;;;;5074966;28;20484;-71
2024/01/02 10:47:45;;;;;;;26.70;3.60;;;9.50;99.90;;;;;;5091195;28;20055;-73
2024/01/02 10:50:19;;;;;;;30.48;4.90;;;9.60;99.90;;;;;;5076045;28;20051;-71
2024/01/02 10:53:23;;;;;;;37.15;6.20;;;10.40;99.90;;;;;;5091334;28;20101;-72
2024/01/02 10:55:50;;;;;;;;;;;10.00;99.90;;;;;;5075414;28;20090;-72
2024/01/02 10:58:29;;;;;;;29.73;3.15;;;10.30;99.90;;;;;;5125820;27;19958;-72
2024/01/02 11:01:07;;;;;;;28.17;3.70;;;10.20;99.90;;;;;;5091089;28;20104;-72
2024/01/02 11:04:22;;;;;;;30.05;3.90;;;10.10;99.90;;;;;;5091648;28;20054;-73
2024/01/02 11:07:09;;;;;;;31.15;4.07;;;10.50;99.90;;;;;;5045030;28;20505;-73
2024/01/02 11:09:41;;;;;;;31.85;5.43;;;10.80;99.90;;;;;;5074877;28;20050;-72
2024/01/02 11:12:09;;;;;;;30.80;5.18;;;10.60;99.90;;;;;;5073904;28;20047;-72
2024/01/02 11:14:38;;;;;;;27.00;3.58;;;10.90;99.90;;;;;;5091483;28;20356;-72
2024/01/02 11:17:04;;;;;;;33.97;5.32;;;10.80;99.90;;;;;;5090968;28;20480;-73
2024/01/02 11:20:11;;;;;;;25.90;2.92;;;10.90;99.90;;;;;;5058293;28;20048;-71
2024/01/02 11:23:09;;;;;;;26.48;3.55;;;10.30;99.90;;;;;;5012370;28;20557;-72
2024/01/02 11:25:48;;;;;;;26.10;2.85;;;11.00;99.90;;;;;;4995317;28;20387;-72
2024/01/02 11:28:16;;;;;;;29.55;2.92;;;10.50;99.90;;;;;;5056250;28;20086;-72
2024/01/02 11:30:43;;;;;;;31.63;3.13;;;10.70;99.90;;;;;;5057875;28;20047;-72
2024/01/02 11:33:16;;;;;;;28.80;2.78;;;10.90;99.90;;;;;;5057569;28;20043;-74
2024/01/02 11:35:49;;;;;;;29.08;2.97;;;10.80;99.90;;;;;;5074294;28;20067;-73
2024/01/02 11:38:23;;;;;;;29.85;2.90;;;11.10;99.90;;;;;;5102694;27;20179;-73
2024/01/02 11:41:00;;;;;;;30.45;3.72;;;11.00;99.90;;;;;;5074002;28;20055;-73
2024/01/02 11:43:48;;;;;;;30.08;3.13;;;10.50;99.90;;;;;;5091268;28;20175;-74
2024/01/02 11:46:16;;;;;;;29.90;3.50;;;10.80;99.90;;;;;;5090600;28;20051;-73
2024/01/02 11:49:22;;;;;;;28.73;3.90;;;11.00;99.90;;;;;;5057087;28;20223;-74
2024/01/02 11:51:58;;;;;;;37.38;7.28;;;11.00;99.90;;;;;;5012560;28;20148;-72
2024/01/02 11:54:43;;;;;;;46.30;8.98;;;11.30;99.90;;;;;;5081429;28;20043;-74
2024/01/02 11:57:30;;;;;;;46.75;11.60;;;11.20;99.90;;;;;;5090674;28;20058;-72
2024/01/02 12:00:02;;;;;;;51.67;12.68;;;11.20;99.90;;;;;;5056436;28;20101;-73
2024/01/02 12:02:35;;;;;;;53.63;14.38;;;11.30;99.90;;;;;;5090651;28;20138;-72
2024/01/02 12:05:32;;;;;;;53.60;16.17;;;11.10;99.90;;;;;;5090128;28;20078;-72
2024/01/02 12:07:58;;;;;;;51.78;16.58;;;11.00;99.90;;;;;;5084208;28;20612;-72
2024/01/02 12:10:33;;;;;;;52.22;17.58;;;11.30;99.90;;;;;;5056289;28;20439;-73
2024/01/02 12:13:11;;;;;;;63.13;18.08;;;11.30;99.90;;;;;;5090160;28;20151;-72
2024/01/02 12:15:47;;;;;;;59.75;17.40;;;11.10;99.90;;;;;;5107191;28;20043;-72
2024/01/02 12:18:14;;;;;;;59.28;19.33;;;11.30;99.90;;;;;;5090483;28;20512;-72
2024/01/02 12:20:50;;;;;;;53.10;16.58;;;10.80;99.90;;;;;;5089863;28;20051;-72
2024/01/02 12:23:16;;;;;;;53.03;15.27;;;11.20;99.90;;;;;;5090357;28;20138;-72
2024/01/02 12:25:46;;;;;;;53.38;14.85;;;11.00;99.90;;;;;;5055763;28;20035;-72
2024/01/02 12:28:14;;;;;;;59.40;14.05;;;11.20;99.90;;;;;;5090044;28;20051;-73
2024/01/02 12:31:21;;;;;;;46.35;11.45;;;11.10;99.90;;;;;;5089554;28;20032;-72
2024/01/02 12:34:00;;;;;;;47.20;10.68;;;10.80;99.90;;;;;;5046283;28;20360;-72
2024/01/02 12:36:34;;;;;;;44.92;9.57;;;11.10;99.90;;;;;;5073802;28;20075;-72
2024/01/02 12:39:05;;;;;;;44.67;8.38;;;11.10;99.90;;;;;;5090587;28;20105;-73
2024/01/02 12:41:40;;;;;;;36.97;8.85;;;11.20;99.90;;;;;;5077278;28;20545;-73
2024/01/02 12:44:08;;;;;;;44.17;7.88;;;11.20;99.90;;;;;;5077259;28;20371;-72
2024/01/02 12:46:42;;;;;;;34.08;6.35;;;10.70;99.90;;;;;;5076714;28;20087;-72
2024/01/02 12:49:10;;;;;;;37.30;6.35;;;10.70;99.90;;;;;;5076906;28;20718;-72
2024/01/02 12:51:37;;;;;;;32.95;5.88;;;10.80;99.90;;;;;;5077100;28;20215;-73
2024/01/02 12:54:05;;;;;;;36.85;6.43;;;10.90;99.90;;;;;;5059282;28;20039;-71
2024/01/02 12:56:33;;;;;;;37.15;6.80;;;11.00;99.90;;;;;;5059671;28;20046;-71
2024/01/02 12:59:08;;;;;;;35.67;5.75;;;11.20;99.90;;;;;;5076540;28;20039;-71